Time,TemperatureF,DewpointF,PressureIn,WindDirection,WindDirectionDegrees,WindSpeedMPH,WindSpeedGustMPH,Humidity,HourlyPrecipIn,Conditions,Clouds,dailyrainin,SoftwareType,DateUTC
2013-03-07 00:00:00,28.1,22.4,30.15,NE,55,11.0,11.0,79,15.16,,,99.99,Wunderground v.1.15,2013-03-07 05:00:00,
2013-03-07 00:01:00,28.1,22.4,30.15,ENE,65,13.0,13.0,79,15.16,,,99.99,Wunderground v.1.15,2013-03-07 05:01:00,
2013-03-07 00:02:00,28.1,22.4,30.15,NE,54,10.0,13.0,79,15.16,,,99.99,Wunderground v.1.15,2013-03-07 05:02:00,
2013-03-07 00:07:00,27.9,22.2,30.14,NNW,346,2.0,8.0,79,15.16,,,99.99,Wunderground v.1.15,2013-03-07 05:07:00,
2013-03-07 00:12:00,27.9,22.2,30.14,ENE,72,11.0,11.0,79,15.16,,,99.99,Wunderground v.1.15,2013-03-07 05:12:00,
2013-03-07 00:18:00,27.9,22.2,30.14,NNW,329,1.0,8.0,79,15.16,,,99.99,Wunderground v.1.15,2013-03-07 05:18:00,
2013-03-07 00:23:00,27.8,22.4,30.14,NE,52,12.0,12.0,80,15.16,,,99.99,Wunderground v.1.15,2013-03-07 05:23:00,
2013-03-07 00:29:00,27.8,22.1,30.14,East,80,6.0,16.0,79,15.16,,,99.99,Wunderground v.1.15,2013-03-07 05:29:00,
2013-03-07 00:36:00,27.8,22.1,30.11,NNE,31,8.0,11.0,79,15.16,,,99.99,Wunderground v.1.15,2013-03-07 05:36:00,
2013-03-07 00:42:00,27.6,22.2,30.11,East,85,10.0,11.0,80,15.16,,,99.99,Wunderground v.1.15,2013-03-07 05:42:00,
2013-03-07 00:47:00,27.6,22.2,30.11,North,11,12.0,12.0,80,15.16,,,99.99,Wunderground v.1.15,2013-03-07 05:47:00,
2013-03-07 00:52:00,27.6,22.2,30.11,WNW,302,0.0,12.0,80,15.16,,,99.99,Wunderground v.1.15,2013-03-07 05:52:00,
2013-03-07 00:58:00,27.5,22.1,30.11,ENE,72,11.0,11.0,80,14.40,,,99.99,Wunderground v.1.15,2013-03-07 05:58:00,
2013-03-07 01:06:00,27.5,22.1,30.12,ESE,116,0.0,5.0,80,14.40,,,-99.99,Wunderground v.1.15,2013-03-07 06:06:00,
2013-03-07 01:11:00,27.5,22.1,30.12,East,86,8.0,8.0,80,15.16,,,-99.99,Wunderground v.1.15,2013-03-07 06:11:00,
2013-03-07 01:17:00,27.5,22.1,30.12,ENE,73,2.0,2.0,80,15.16,,,-99.99,Wunderground v.1.15,2013-03-07 06:17:00,
2013-03-07 01:22:00,27.5,22.1,30.13,North,359,0.0,6.0,80,15.16,,,-99.99,Wunderground v.1.15,2013-03-07 06:22:00,
2013-03-07 01:28:00,27.5,22.1,30.13,ENE,62,0.0,6.0,80,15.16,,,-99.99,Wunderground v.1.15,2013-03-07 06:28:00,
2013-03-07 01:36:00,27.5,22.1,30.14,NE,38,8.0,8.0,80,14.40,,,-99.99,Wunderground v.1.15,2013-03-07 06:36:00,
2013-03-07 01:41:00,27.5,22.1,30.14,NE,47,2.0,7.0,80,14.40,,,-99.99,Wunderground v.1.15,2013-03-07 06:41:00,
2013-03-07 01:46:00,27.6,21.9,30.14,NNE,30,8.0,8.0,79,14.40,,,-99.99,Wunderground v.1.15,2013-03-07 06:46:00,
2013-03-07 01:52:00,27.6,21.9,30.13,ENE,64,3.0,10.0,79,15.16,,,-99.99,Wunderground v.1.15,2013-03-07 06:52:00,
2013-03-07 01:58:00,27.6,21.9,30.13,NE,51,0.0,3.0,79,15.16,,,-99.99,Wunderground v.1.15,2013-03-07 06:58:00,
2013-03-07 02:03:00,27.5,21.8,30.14,North,350,1.0,6.0,79,15.16,,,-99.99,Wunderground v.1.15,2013-03-07 07:03:00,
2013-03-07 02:08:00,27.5,21.8,30.14,NE,40,10.0,13.0,79,14.40,,,1.23,Wunderground v.1.15,2013-03-07 07:08:00,
2013-03-07 02:13:00,27.6,21.9,30.14,NNE,16,0.0,13.0,79,15.16,,,2.38,Wunderground v.1.15,2013-03-07 07:13:00,
2013-03-07 02:18:00,27.5,21.8,30.16,ENE,68,0.0,6.0,79,14.40,,,3.61,Wunderground v.1.15,2013-03-07 07:18:00,
2013-03-07 02:23:00,27.5,22.1,30.16,ENE,59,1.0,6.0,80,15.16,,,4.80,Wunderground v.1.15,2013-03-07 07:23:00,
2013-03-07 02:28:00,27.5,22.1,30.16,North,352,0.0,3.0,80,15.16,,,5.95,Wunderground v.1.15,2013-03-07 07:28:00,
2013-03-07 02:33:00,27.3,21.9,30.17,ENE,66,8.0,8.0,80,15.16,,,7.14,Wunderground v.1.15,2013-03-07 07:33:00,
2013-03-07 02:38:00,27.3,21.9,30.17,NE,49,7.0,7.0,80,15.16,,,8.41,Wunderground v.1.15,2013-03-07 07:38:00,
2013-03-07 02:44:00,27.2,21.8,30.17,ENE,68,6.0,10.0,80,15.16,,,9.60,Wunderground v.1.15,2013-03-07 07:44:00,
2013-03-07 02:49:00,27.2,21.8,30.16,NE,52,0.0,6.0,80,15.16,,,10.83,Wunderground v.1.15,2013-03-07 07:49:00,
2013-03-07 02:54:00,27.0,21.9,30.16,ENE,66,6.0,11.0,81,15.16,,,12.06,Wunderground v.1.15,2013-03-07 07:54:00,
2013-03-07 02:59:00,27.0,21.9,30.16,NNE,13,0.0,14.0,81,14.40,,,13.21,Wunderground v.1.15,2013-03-07 07:59:00,
2013-03-07 03:04:00,26.7,21.9,30.16,NE,41,6.0,10.0,82,14.40,,,14.44,Wunderground v.1.15,2013-03-07 08:04:00,
2013-03-07 03:09:00,26.7,21.9,30.16,ENE,69,2.0,10.0,82,14.40,,,15.71,Wunderground v.1.15,2013-03-07 08:09:00,
2013-03-07 03:16:00,26.4,21.9,30.16,NNE,27,8.0,8.0,83,14.40,,,17.42,Wunderground v.1.15,2013-03-07 08:16:00,
2013-03-07 03:22:00,26.3,21.8,30.16,East,93,9.0,9.0,83,14.40,,,18.73,Wunderground v.1.15,2013-03-07 08:22:00,
2013-03-07 03:27:00,26.3,22.1,30.16,ENE,72,10.0,10.0,84,15.16,,,19.84,Wunderground v.1.15,2013-03-07 08:27:00,
2013-03-07 03:32:00,26.1,21.9,30.16,NNE,14,11.0,12.0,84,15.16,,,21.15,Wunderground v.1.15,2013-03-07 08:32:00,
2013-03-07 03:37:00,26.1,21.9,30.16,ENE,65,2.0,7.0,84,15.16,,,22.30,Wunderground v.1.15,2013-03-07 08:37:00,
2013-03-07 03:42:00,26.0,22.1,30.16,NE,54,6.0,8.0,85,14.40,,,23.65,Wunderground v.1.15,2013-03-07 08:42:00,
2013-03-07 03:47:00,26.0,22.1,30.17,ENE,69,5.0,7.0,85,15.16,,,24.88,Wunderground v.1.15,2013-03-07 08:47:00,
2013-03-07 03:52:00,26.0,21.8,30.17,NE,37,1.0,11.0,84,15.16,,,25.99,Wunderground v.1.15,2013-03-07 08:52:00,
2013-03-07 03:58:00,26.1,21.9,30.17,East,93,0.0,12.0,84,15.16,,,27.22,Wunderground v.1.15,2013-03-07 08:58:00,
2013-03-07 04:03:00,26.0,22.1,30.17,ENE,62,12.0,12.0,85,15.16,,,28.41,Wunderground v.1.15,2013-03-07 09:03:00,
2013-03-07 04:08:00,26.0,22.1,30.17,North,6,10.0,11.0,85,15.16,,,29.64,Wunderground v.1.15,2013-03-07 09:08:00,
2013-03-07 04:13:00,26.0,22.1,30.17,East,96,6.0,12.0,85,14.40,,,30.91,Wunderground v.1.15,2013-03-07 09:13:00,
2013-03-07 04:18:00,26.0,22.1,30.17,ENE,75,14.0,14.0,85,15.16,,,32.14,Wunderground v.1.15,2013-03-07 09:18:00,
2013-03-07 04:23:00,26.0,22.1,30.17,WNW,301,0.0,14.0,85,14.40,,,33.34,Wunderground v.1.15,2013-03-07 09:23:00,
2013-03-07 04:28:00,26.0,22.1,30.17,ENE,69,4.0,13.0,85,14.40,,,34.53,Wunderground v.1.15,2013-03-07 09:28:00,
2013-03-07 04:33:00,26.0,22.4,30.17,East,93,0.0,13.0,86,14.40,,,35.76,Wunderground v.1.15,2013-03-07 09:33:00,
2013-03-07 04:39:00,26.0,22.4,30.17,NE,45,3.0,9.0,86,15.16,,,36.99,Wunderground v.1.15,2013-03-07 09:39:00,
2013-03-07 04:44:00,25.8,21.9,30.17,East,85,7.0,9.0,85,15.16,,,38.22,Wunderground v.1.15,2013-03-07 09:44:00,
2013-03-07 04:49:00,25.8,22.2,30.18,North,0,12.0,12.0,86,15.16,,,39.41,Wunderground v.1.15,2013-03-07 09:49:00,
2013-03-07 04:56:00,26.1,22.2,30.18,ENE,78,3.0,5.0,85,14.40,,,41.03,Wunderground v.1.15,2013-03-07 09:56:00,
2013-03-07 05:01:00,26.0,22.1,30.18,ENE,65,1.0,8.0,85,14.40,,,42.27,Wunderground v.1.15,2013-03-07 10:01:00,
2013-03-07 05:06:00,26.0,22.1,30.19,NE,54,2.0,4.0,85,14.40,,,43.50,Wunderground v.1.15,2013-03-07 10:06:00,
2013-03-07 05:11:00,26.1,22.2,30.19,East,85,8.0,10.0,85,15.16,,,44.33,Wunderground v.1.15,2013-03-07 10:11:00,
2013-03-07 05:16:00,26.3,22.1,30.19,ENE,78,3.0,8.0,84,15.16,,,45.88,Wunderground v.1.15,2013-03-07 10:16:00,
2013-03-07 05:21:00,26.3,22.1,30.20,NE,56,1.0,16.0,84,15.16,,,47.11,Wunderground v.1.15,2013-03-07 10:21:00,
2013-03-07 05:26:00,26.1,21.9,30.20,NNE,25,2.0,5.0,84,15.16,,,48.30,Wunderground v.1.15,2013-03-07 10:26:00,
2013-03-07 05:31:00,26.0,22.1,30.20,ENE,59,1.0,11.0,85,15.16,,,49.53,Wunderground v.1.15,2013-03-07 10:31:00,
2013-03-07 05:36:00,26.0,22.1,30.20,NE,48,0.0,4.0,85,15.16,,,50.64,Wunderground v.1.15,2013-03-07 10:36:00,
2013-03-07 05:41:00,25.8,22.2,30.20,ENE,76,9.0,9.0,86,15.16,,,51.95,Wunderground v.1.15,2013-03-07 10:41:00,
2013-03-07 05:46:00,25.7,22.1,30.20,ENE,66,6.0,6.0,86,15.16,,,53.06,Wunderground v.1.15,2013-03-07 10:46:00,
2013-03-07 05:51:00,25.7,22.1,30.20,NE,41,12.0,14.0,86,14.40,,,54.37,Wunderground v.1.15,2013-03-07 10:51:00,
2013-03-07 05:56:00,25.7,22.1,30.20,ENE,65,3.0,11.0,86,14.40,,,55.60,Wunderground v.1.15,2013-03-07 10:56:00,
2013-03-07 06:02:00,25.7,22.1,30.20,East,88,8.0,12.0,86,15.16,,,56.79,Wunderground v.1.15,2013-03-07 11:02:00,
2013-03-07 06:07:00,25.7,22.1,30.21,NE,55,8.0,12.0,86,15.16,,,58.02,Wunderground v.1.15,2013-03-07 11:07:00,
2013-03-07 06:12:00,25.7,22.1,30.21,NE,42,3.0,12.0,86,15.16,,,59.21,Wunderground v.1.15,2013-03-07 11:12:00,
2013-03-07 06:17:00,25.6,22.0,30.21,North,6,5.0,10.0,86,15.16,,,60.40,Wunderground v.1.15,2013-03-07 11:17:00,
2013-03-07 06:22:00,25.6,22.0,30.21,ENE,58,7.0,12.0,86,14.40,,,61.63,Wunderground v.1.15,2013-03-07 11:22:00,
2013-03-07 06:27:00,25.6,22.3,30.21,NE,47,7.0,7.0,87,14.40,,,62.86,Wunderground v.1.15,2013-03-07 11:27:00,
2013-03-07 06:33:00,25.6,22.0,30.21,NE,54,5.0,18.0,86,15.16,,,64.17,Wunderground v.1.15,2013-03-07 11:33:00,
2013-03-07 06:38:00,25.6,22.0,30.21,NNE,24,8.0,13.0,86,15.16,,,65.40,Wunderground v.1.15,2013-03-07 11:38:00,
2013-03-07 06:43:00,25.7,21.8,30.21,ENE,58,8.0,17.0,85,15.16,,,66.59,Wunderground v.1.15,2013-03-07 11:43:00,
2013-03-07 06:48:00,25.8,21.9,30.20,NE,51,13.0,13.0,85,14.40,,,67.82,Wunderground v.1.15,2013-03-07 11:48:00,
2013-03-07 06:53:00,26.1,21.9,30.20,ENE,71,10.0,13.0,84,14.40,,,69.01,Wunderground v.1.15,2013-03-07 11:53:00,
2013-03-07 06:58:00,26.3,21.8,30.20,ENE,59,6.0,12.0,83,15.16,,,70.28,Wunderground v.1.15,2013-03-07 11:58:00,
2013-03-07 07:03:00,26.3,21.8,30.21,NE,48,9.0,15.0,83,15.16,,,71.51,Wunderground v.1.15,2013-03-07 12:03:00,
2013-03-07 07:09:00,26.1,21.9,30.21,NNE,13,10.0,11.0,84,15.16,,,72.71,Wunderground v.1.15,2013-03-07 12:09:00,
2013-03-07 07:14:00,26.0,21.8,30.21,NE,56,12.0,17.0,84,15.16,,,73.98,Wunderground v.1.15,2013-03-07 12:14:00,
2013-03-07 07:19:00,26.1,21.9,30.23,NE,55,10.0,17.0,84,14.40,,,75.21,Wunderground v.1.15,2013-03-07 12:19:00,
2013-03-07 07:24:00,26.3,22.1,30.23,NE,41,8.0,11.0,84,14.40,,,76.32,Wunderground v.1.15,2013-03-07 12:24:00,
2013-03-07 07:29:00,26.4,21.9,30.23,NE,47,11.0,12.0,83,14.40,,,77.55,Wunderground v.1.15,2013-03-07 12:29:00,
2013-03-07 07:36:00,26.6,22.1,30.25,NE,51,4.0,8.0,83,15.16,,,79.25,Wunderground v.1.15,2013-03-07 12:36:00,
2013-03-07 07:41:00,26.7,22.2,30.25,ENE,69,6.0,11.0,83,15.16,,,80.44,Wunderground v.1.15,2013-03-07 12:41:00,
2013-03-07 07:46:00,26.7,22.5,30.25,ENE,73,9.0,9.0,84,14.40,,,81.71,Wunderground v.1.15,2013-03-07 12:46:00,
2013-03-07 07:51:00,26.7,22.2,30.25,ENE,58,6.0,14.0,83,14.40,,,82.94,Wunderground v.1.15,2013-03-07 12:51:00,
2013-03-07 07:57:00,26.6,22.1,30.25,ENE,61,9.0,10.0,83,15.16,,,84.21,Wunderground v.1.15,2013-03-07 12:57:00,
2013-03-07 08:02:00,26.4,22.2,30.25,NE,44,8.0,11.0,84,15.16,,,85.45,Wunderground v.1.15,2013-03-07 13:02:00,
2013-03-07 08:07:00,26.6,22.4,30.25,NE,45,5.0,9.0,84,15.16,,,86.56,Wunderground v.1.15,2013-03-07 13:07:00,
2013-03-07 08:12:00,26.7,22.2,30.25,NE,54,3.0,12.0,83,14.40,,,87.95,Wunderground v.1.15,2013-03-07 13:12:00,
2013-03-07 08:18:00,26.7,22.2,30.25,NE,54,9.0,11.0,83,15.16,,,89.18,Wunderground v.1.15,2013-03-07 13:18:00,
2013-03-07 08:23:00,26.7,22.5,30.25,ENE,69,6.0,11.0,84,15.16,,,90.37,Wunderground v.1.15,2013-03-07 13:23:00,
2013-03-07 08:28:00,27.0,22.5,30.25,NE,54,11.0,11.0,83,15.16,,,91.60,Wunderground v.1.15,2013-03-07 13:28:00,
2013-03-07 08:33:00,27.0,22.5,30.25,NE,40,4.0,20.0,83,14.40,,,92.83,Wunderground v.1.15,2013-03-07 13:33:00,
2013-03-07 08:38:00,27.0,22.5,30.25,ENE,61,6.0,12.0,83,14.40,,,94.10,Wunderground v.1.15,2013-03-07 13:38:00,
2013-03-07 08:43:00,27.2,22.7,30.25,ENE,64,7.0,12.0,83,15.16,,,95.33,Wunderground v.1.15,2013-03-07 13:43:00,
2013-03-07 08:49:00,27.5,22.7,30.25,ENE,65,7.0,12.0,82,15.16,,,96.56,Wunderground v.1.15,2013-03-07 13:49:00,
2013-03-07 08:54:00,27.5,22.7,30.25,NE,56,6.0,7.0,82,15.16,,,97.63,Wunderground v.1.15,2013-03-07 13:54:00,
2013-03-07 08:59:00,27.8,23.3,30.25,NE,38,7.0,10.0,83,15.16,,,98.98,Wunderground v.1.15,2013-03-07 13:59:00,
2013-03-07 09:04:00,28.2,23.1,30.24,ENE,71,2.0,5.0,81,14.40,,,99.99,Wunderground v.1.15,2013-03-07 14:04:00,
2013-03-07 09:09:00,28.5,23.4,30.24,ENE,69,3.0,5.0,81,14.40,,,99.99,Wunderground v.1.15,2013-03-07 14:09:00,
2013-03-07 09:16:00,29.0,23.0,30.24,North,10,12.0,12.0,78,15.16,,,99.99,Wunderground v.1.15,2013-03-07 14:16:00,
2013-03-07 09:21:00,29.5,24.1,30.25,East,79,7.0,12.0,80,15.16,,,99.99,Wunderground v.1.15,2013-03-07 14:21:00,
2013-03-07 09:26:00,30.3,24.0,30.25,ENE,72,6.0,8.0,77,15.16,,,99.99,Wunderground v.1.15,2013-03-07 14:26:00,
2013-03-07 09:31:00,30.9,23.9,30.25,NE,52,2.0,11.0,75,14.40,,,99.99,Wunderground v.1.15,2013-03-07 14:31:00,
2013-03-07 09:37:00,31.0,24.0,30.23,NE,51,11.0,11.0,75,15.16,,,99.99,Wunderground v.1.15,2013-03-07 14:37:00,
2013-03-07 09:42:00,31.2,24.2,30.23,NE,49,2.0,11.0,75,15.16,,,99.99,Wunderground v.1.15,2013-03-07 14:42:00,
2013-03-07 09:47:00,31.6,24.3,30.23,ENE,72,3.0,6.0,74,15.16,,,99.99,Wunderground v.1.15,2013-03-07 14:47:00,
2013-03-07 09:52:00,32.2,24.5,30.24,ENE,64,4.0,8.0,73,15.16,,,99.99,Wunderground v.1.15,2013-03-07 14:52:00,
2013-03-07 09:57:00,32.7,24.7,30.24,ENE,62,7.0,8.0,72,14.40,,,99.99,Wunderground v.1.15,2013-03-07 14:57:00,
2013-03-07 10:02:00,32.9,24.9,30.23,NE,42,6.0,10.0,72,14.40,,,99.99,Wunderground v.1.15,2013-03-07 15:02:00,
2013-03-07 10:08:00,33.2,25.1,30.23,NE,51,5.0,7.0,72,15.16,,,99.99,Wunderground v.1.15,2013-03-07 15:08:00,
2013-03-07 10:13:00,33.7,25.0,30.23,ENE,58,2.0,7.0,70,15.16,,,99.99,Wunderground v.1.15,2013-03-07 15:13:00,
2013-03-07 10:18:00,33.7,25.0,30.24,ENE,66,8.0,10.0,70,14.40,,,99.99,Wunderground v.1.15,2013-03-07 15:18:00,
2013-03-07 10:23:00,33.8,24.7,30.24,ENE,72,2.0,10.0,69,14.40,,,99.99,Wunderground v.1.15,2013-03-07 15:23:00,
2013-03-07 10:28:00,33.8,24.7,30.24,ENE,64,2.0,8.0,69,14.40,,,99.99,Wunderground v.1.15,2013-03-07 15:28:00,
2013-03-07 10:33:00,34.0,24.9,30.24,NE,55,4.0,8.0,69,15.16,,,99.99,Wunderground v.1.15,2013-03-07 15:33:00,
2013-03-07 10:38:00,34.4,24.9,30.24,NE,52,2.0,7.0,68,15.16,,,99.99,Wunderground v.1.15,2013-03-07 15:38:00,
2013-03-07 10:43:00,35.0,25.9,30.24,ENE,61,0.0,7.0,69,15.16,,,99.99,Wunderground v.1.15,2013-03-07 15:43:00,
2013-03-07 10:48:00,35.8,25.9,30.24,ENE,78,0.0,2.0,67,15.16,,,99.99,Wunderground v.1.15,2013-03-07 15:48:00,
2013-03-07 10:54:00,36.6,26.3,30.24,ENE,76,0.0,0.0,66,15.16,,,99.99,Wunderground v.1.15,2013-03-07 15:54:00,
2013-03-07 10:59:00,37.2,25.8,30.24,ENE,64,0.0,2.0,63,14.40,,,99.99,Wunderground v.1.15,2013-03-07 15:59:00,
2013-03-07 11:06:00,37.8,25.5,30.22,ENE,58,4.0,4.0,61,15.16,,,99.99,Wunderground v.1.15,2013-03-07 16:06:00,
2013-03-07 11:11:00,37.9,26.0,30.22,ENE,62,0.0,8.0,62,15.16,,,99.99,Wunderground v.1.15,2013-03-07 16:11:00,
2013-03-07 11:16:00,38.5,25.4,30.22,ENE,61,0.0,2.0,59,15.16,,,99.99,Wunderground v.1.15,2013-03-07 16:16:00,
2013-03-07 11:21:00,39.3,25.7,30.22,East,88,1.0,8.0,58,15.16,,,99.99,Wunderground v.1.15,2013-03-07 16:21:00,
2013-03-07 11:26:00,39.8,26.2,30.22,ENE,71,0.0,1.0,58,14.40,,,99.99,Wunderground v.1.15,2013-03-07 16:26:00,
2013-03-07 11:31:00,40.8,26.7,30.22,ENE,71,1.0,3.0,57,14.40,,,99.99,Wunderground v.1.15,2013-03-07 16:31:00,
2013-03-07 11:37:00,41.6,26.6,30.22,ENE,68,2.0,4.0,55,14.40,,,99.99,Wunderground v.1.15,2013-03-07 16:37:00,
2013-03-07 11:42:00,41.6,27.1,30.22,ENE,69,0.0,4.0,56,14.40,,,99.99,Wunderground v.1.15,2013-03-07 16:42:00,
2013-03-07 11:47:00,42.1,27.1,30.22,ENE,73,0.0,1.0,55,15.16,,,99.99,Wunderground v.1.15,2013-03-07 16:47:00,
2013-03-07 11:52:00,42.8,27.7,30.22,ENE,68,0.0,1.0,55,15.16,,,99.99,Wunderground v.1.15,2013-03-07 16:52:00,
2013-03-07 11:57:00,43.5,27.5,30.22,NE,47,0.0,0.0,53,15.16,,,99.99,Wunderground v.1.15,2013-03-07 16:57:00,
2013-03-07 12:02:00,43.8,27.3,30.20,ENE,59,0.0,3.0,52,14.40,,,99.99,Wunderground v.1.15,2013-03-07 17:02:00,
2013-03-07 12:08:00,43.6,26.6,30.20,ENE,68,2.0,3.0,51,15.16,,,99.99,Wunderground v.1.15,2013-03-07 17:08:00,
2013-03-07 12:13:00,43.3,25.9,30.20,ENE,64,0.0,5.0,50,15.16,,,99.99,Wunderground v.1.15,2013-03-07 17:13:00,
2013-03-07 12:18:00,43.3,25.9,30.20,NE,52,0.0,6.0,50,15.16,,,99.99,Wunderground v.1.15,2013-03-07 17:18:00,
2013-03-07 12:23:00,43.9,26.0,30.20,East,79,7.0,7.0,49,14.40,,,99.99,Wunderground v.1.15,2013-03-07 17:23:00,
2013-03-07 12:28:00,44.1,27.6,30.20,ENE,72,1.0,6.0,52,14.40,,,99.99,Wunderground v.1.15,2013-03-07 17:28:00,
2013-03-07 12:33:00,44.3,27.8,30.19,ENE,72,1.0,6.0,52,14.40,,,99.99,Wunderground v.1.15,2013-03-07 17:33:00,
2013-03-07 12:38:00,44.6,27.6,30.19,ENE,68,3.0,6.0,51,14.40,,,99.99,Wunderground v.1.15,2013-03-07 17:38:00,
2013-03-07 12:43:00,44.9,27.8,30.19,ENE,75,2.0,11.0,51,14.40,,,99.99,Wunderground v.1.15,2013-03-07 17:43:00,
2013-03-07 12:48:00,45.4,27.3,30.19,ENE,64,0.0,4.0,49,14.40,,,99.99,Wunderground v.1.15,2013-03-07 17:48:00,
2013-03-07 12:53:00,46.0,27.4,30.19,ENE,58,5.0,5.0,48,14.40,,,99.99,Wunderground v.1.15,2013-03-07 17:53:00,
2013-03-07 12:58:00,46.1,27.5,30.19,ENE,78,7.0,8.0,48,15.16,,,99.99,Wunderground v.1.15,2013-03-07 17:58:00,
2013-03-07 13:04:00,45.8,25.6,30.17,ENE,66,10.0,10.0,45,15.16,,,99.99,Wunderground v.1.15,2013-03-07 18:04:00,
2013-03-07 13:09:00,45.7,26.1,30.17,ENE,76,8.0,11.0,46,15.16,,,99.99,Wunderground v.1.15,2013-03-07 18:09:00,
2013-03-07 13:16:00,46.1,27.0,30.17,NNE,30,7.0,10.0,47,15.16,,,99.99,Wunderground v.1.15,2013-03-07 18:16:00,
2013-03-07 13:21:00,46.4,26.7,30.17,ENE,71,3.0,10.0,46,15.16,,,99.99,Wunderground v.1.15,2013-03-07 18:21:00,
2013-03-07 13:26:00,46.8,27.6,30.17,NE,56,4.0,5.0,47,15.16,,,99.99,Wunderground v.1.15,2013-03-07 18:26:00,
2013-03-07 13:32:00,47.6,28.3,30.17,NE,45,5.0,8.0,47,15.16,,,99.99,Wunderground v.1.15,2013-03-07 18:32:00,
2013-03-07 13:37:00,47.6,27.8,30.15,NE,55,11.0,11.0,46,15.16,,,99.99,Wunderground v.1.15,2013-03-07 18:37:00,
2013-03-07 13:42:00,47.4,28.2,30.15,ENE,64,3.0,11.0,47,15.16,,,99.99,Wunderground v.1.15,2013-03-07 18:42:00,
2013-03-07 13:47:00,47.6,27.8,30.15,ENE,69,7.0,9.0,46,15.16,,,99.99,Wunderground v.1.15,2013-03-07 18:47:00,
2013-03-07 13:53:00,47.6,28.9,30.15,ENE,68,5.0,9.0,48,15.16,,,99.99,Wunderground v.1.15,2013-03-07 18:53:00,
2013-03-07 13:58:00,47.6,28.3,30.15,NE,56,7.0,9.0,47,15.16,,,99.99,Wunderground v.1.15,2013-03-07 18:58:00,
2013-03-07 14:03:00,47.9,29.1,30.14,NE,51,0.0,9.0,48,15.16,,,99.99,Wunderground v.1.15,2013-03-07 19:03:00,
2013-03-07 14:08:00,48.6,28.7,30.14,NE,42,0.0,4.0,46,14.40,,,99.99,Wunderground v.1.15,2013-03-07 19:08:00,
2013-03-07 14:13:00,48.9,29.0,30.14,ENE,66,6.0,6.0,46,14.40,,,99.99,Wunderground v.1.15,2013-03-07 19:13:00,
2013-03-07 14:18:00,48.8,28.9,30.13,NE,52,0.0,5.0,46,15.16,,,99.99,Wunderground v.1.15,2013-03-07 19:18:00,
2013-03-07 14:24:00,48.8,30.0,30.13,ENE,62,3.0,3.0,48,14.40,,,99.99,Wunderground v.1.15,2013-03-07 19:24:00,
2013-03-07 14:29:00,49.1,29.2,30.13,NE,51,3.0,10.0,46,14.40,,,99.99,Wunderground v.1.15,2013-03-07 19:29:00,
2013-03-07 14:34:00,49.2,29.3,30.13,ENE,58,8.0,8.0,46,15.16,,,99.99,Wunderground v.1.15,2013-03-07 19:34:00,
2013-03-07 14:40:00,49.4,28.9,30.13,ENE,68,7.0,9.0,45,14.40,,,99.99,Wunderground v.1.15,2013-03-07 19:40:00,
2013-03-07 14:45:00,49.4,28.9,30.13,ENE,72,7.0,8.0,45,14.40,,,99.99,Wunderground v.1.15,2013-03-07 19:45:00,
2013-03-07 14:50:00,49.6,28.6,30.13,ENE,73,6.0,8.0,44,15.16,,,99.99,Wunderground v.1.15,2013-03-07 19:50:00,
2013-03-07 14:55:00,49.8,29.3,30.13,ENE,75,5.0,6.0,45,15.16,,,99.99,Wunderground v.1.15,2013-03-07 19:55:00,
2013-03-07 15:00:00,49.9,28.8,30.13,ENE,59,2.0,9.0,44,15.16,,,99.99,Wunderground v.1.15,2013-03-07 20:00:00,
2013-03-07 15:06:00,50.4,28.7,30.13,NNE,18,2.0,4.0,43,14.40,,,99.99,Wunderground v.1.15,2013-03-07 20:06:00,
2013-03-07 15:12:00,50.7,29.0,30.13,ENE,65,4.0,5.0,43,14.40,,,99.99,Wunderground v.1.15,2013-03-07 20:12:00,
2013-03-07 15:17:00,51.1,29.4,30.13,ENE,62,1.0,2.0,43,14.40,,,99.99,Wunderground v.1.15,2013-03-07 20:17:00,
2013-03-07 15:22:00,51.3,29.5,30.14,ENE,73,3.0,4.0,43,15.16,,,99.99,Wunderground v.1.15,2013-03-07 20:22:00,
2013-03-07 15:27:00,51.3,29.5,30.14,NE,41,0.0,3.0,43,15.16,,,99.99,Wunderground v.1.15,2013-03-07 20:27:00,
2013-03-07 15:32:00,51.6,29.8,30.13,East,80,0.0,4.0,43,14.40,,,99.99,Wunderground v.1.15,2013-03-07 20:32:00,
2013-03-07 15:37:00,52.0,29.6,30.13,ENE,64,1.0,1.0,42,14.40,,,99.99,Wunderground v.1.15,2013-03-07 20:37:00,
2013-03-07 15:43:00,52.2,29.8,30.13,ENE,64,0.0,3.0,42,15.16,,,99.99,Wunderground v.1.15,2013-03-07 20:43:00,
2013-03-07 15:48:00,52.2,29.8,30.13,ENE,65,1.0,5.0,42,15.16,,,99.99,Wunderground v.1.15,2013-03-07 20:48:00,
2013-03-07 15:53:00,52.2,29.8,30.13,ENE,62,1.0,5.0,42,15.16,,,99.99,Wunderground v.1.15,2013-03-07 20:53:00,
2013-03-07 15:58:00,52.2,29.8,30.13,ENE,72,5.0,6.0,42,15.16,,,99.99,Wunderground v.1.15,2013-03-07 20:58:00,
2013-03-07 16:03:00,52.2,29.8,30.13,ENE,75,2.0,6.0,42,15.16,,,99.99,Wunderground v.1.15,2013-03-07 21:03:00,
2013-03-07 16:08:00,52.2,29.8,30.13,ENE,75,3.0,4.0,42,15.16,,,99.99,Wunderground v.1.15,2013-03-07 21:08:00,
2013-03-07 16:14:00,52.2,29.8,30.13,ENE,66,1.0,2.0,42,15.16,,,99.99,Wunderground v.1.15,2013-03-07 21:14:00,
2013-03-07 16:19:00,52.2,29.8,30.13,ENE,69,1.0,3.0,42,15.16,,,99.99,Wunderground v.1.15,2013-03-07 21:19:00,
2013-03-07 16:24:00,52.3,29.9,30.13,ENE,61,0.0,1.0,42,15.16,,,99.99,Wunderground v.1.15,2013-03-07 21:24:00,
2013-03-07 16:29:00,52.3,29.9,30.13,ENE,75,3.0,5.0,42,14.40,,,99.99,Wunderground v.1.15,2013-03-07 21:29:00,
2013-03-07 16:36:00,52.3,29.3,30.13,ENE,64,0.0,2.0,41,15.16,,,99.99,Wunderground v.1.15,2013-03-07 21:36:00,
2013-03-07 16:41:00,52.2,29.2,30.13,ENE,59,0.0,3.0,41,15.16,,,99.99,Wunderground v.1.15,2013-03-07 21:41:00,
2013-03-07 16:46:00,51.9,28.3,30.13,NE,49,6.0,8.0,40,15.16,,,99.99,Wunderground v.1.15,2013-03-07 21:46:00,
2013-03-07 16:51:00,51.9,28.3,30.13,ENE,61,0.0,8.0,40,14.40,,,99.99,Wunderground v.1.15,2013-03-07 21:51:00,
2013-03-07 16:56:00,51.7,28.1,30.13,ENE,61,1.0,3.0,40,14.40,,,99.99,Wunderground v.1.15,2013-03-07 21:56:00,
2013-03-07 17:02:00,51.7,27.5,30.13,ENE,71,3.0,6.0,39,14.40,,,99.99,Wunderground v.1.15,2013-03-07 22:02:00,
2013-03-07 17:07:00,51.6,27.4,30.13,ENE,71,6.0,6.0,39,15.16,,,99.99,Wunderground v.1.15,2013-03-07 22:07:00,
2013-03-07 17:12:00,51.6,27.4,30.13,ENE,66,3.0,6.0,39,15.16,,,99.99,Wunderground v.1.15,2013-03-07 22:12:00,
2013-03-07 17:17:00,51.4,27.9,30.13,NE,45,2.0,8.0,40,15.16,,,99.99,Wunderground v.1.15,2013-03-07 22:17:00,
2013-03-07 17:22:00,51.3,27.8,30.15,NNE,28,1.0,8.0,40,14.40,,,99.99,Wunderground v.1.15,2013-03-07 22:22:00,
2013-03-07 17:27:00,51.1,27.6,30.15,NE,38,0.0,6.0,40,14.40,,,99.99,Wunderground v.1.15,2013-03-07 22:27:00,
2013-03-07 17:32:00,51.0,28.1,30.15,NE,44,1.0,6.0,41,14.40,,,99.99,Wunderground v.1.15,2013-03-07 22:32:00,
2013-03-07 17:38:00,50.8,27.9,30.15,NE,42,1.0,8.0,41,15.16,,,99.99,Wunderground v.1.15,2013-03-07 22:38:00,
2013-03-07 17:43:00,50.5,28.2,30.15,NE,56,10.0,10.0,42,15.16,,,99.99,Wunderground v.1.15,2013-03-07 22:43:00,
2013-03-07 17:48:00,50.4,28.7,30.15,NE,47,7.0,8.0,43,15.16,,,99.99,Wunderground v.1.15,2013-03-07 22:48:00,
2013-03-07 17:53:00,50.1,27.9,30.15,NNE,32,7.0,10.0,42,15.16,,,99.99,Wunderground v.1.15,2013-03-07 22:53:00,
2013-03-07 17:58:00,49.9,27.7,30.15,NE,55,2.0,8.0,42,14.40,,,99.99,Wunderground v.1.15,2013-03-07 22:58:00,
2013-03-07 18:04:00,49.6,27.4,30.15,ENE,58,0.0,2.0,42,15.16,,,99.99,Wunderground v.1.15,2013-03-07 23:04:00,
2013-03-07 18:09:00,49.5,27.3,30.15,NE,49,7.0,7.0,42,15.16,,,99.99,Wunderground v.1.15,2013-03-07 23:09:00,
2013-03-07 18:14:00,49.2,27.1,30.15,NNE,28,2.0,4.0,42,14.40,,,99.99,Wunderground v.1.15,2013-03-07 23:14:00,
2013-03-07 18:19:00,48.9,27.4,30.16,NE,47,1.0,9.0,43,14.40,,,99.99,Wunderground v.1.15,2013-03-07 23:19:00,
2013-03-07 18:26:00,48.3,26.8,30.16,East,82,10.0,10.0,43,14.40,,,99.99,Wunderground v.1.15,2013-03-07 23:26:00,
2013-03-07 18:31:00,48.2,27.3,30.16,NE,45,3.0,10.0,44,14.40,,,99.99,Wunderground v.1.15,2013-03-07 23:31:00,
2013-03-07 18:37:00,47.7,27.4,30.17,NE,34,7.0,7.0,45,14.40,,,99.99,Wunderground v.1.15,2013-03-07 23:37:00,
2013-03-07 18:42:00,47.4,27.6,30.17,NE,44,10.0,10.0,46,14.40,,,99.99,Wunderground v.1.15,2013-03-07 23:42:00,
2013-03-07 18:47:00,47.0,28.3,30.17,NNE,20,4.0,6.0,48,15.16,,,99.99,Wunderground v.1.15,2013-03-07 23:47:00,
2013-03-07 18:52:00,46.5,27.8,30.18,NE,48,7.0,13.0,48,15.16,,,99.99,Wunderground v.1.15,2013-03-07 23:52:00,
2013-03-07 18:57:00,46.1,27.5,30.18,ENE,65,2.0,5.0,48,15.16,,,99.99,Wunderground v.1.15,2013-03-07 23:57:00,
2013-03-07 19:02:00,46.0,27.9,30.19,ENE,66,4.0,9.0,49,15.16,,,99.99,Wunderground v.1.15,2013-03-08 00:02:00,
2013-03-07 19:07:00,45.5,27.4,30.19,East,82,5.0,5.0,49,14.40,,,99.99,Wunderground v.1.15,2013-03-08 00:07:00,
2013-03-07 19:13:00,45.1,27.1,30.19,ENE,66,4.0,5.0,49,14.40,,,99.99,Wunderground v.1.15,2013-03-08 00:13:00,
2013-03-07 19:18:00,44.8,26.8,30.20,East,85,2.0,5.0,49,14.40,,,99.99,Wunderground v.1.15,2013-03-08 00:18:00,
2013-03-07 19:23:00,44.5,26.5,30.20,ENE,75,3.0,5.0,49,15.16,,,99.99,Wunderground v.1.15,2013-03-08 00:23:00,
2013-03-07 19:29:00,44.2,25.7,30.20,ENE,73,1.0,8.0,48,15.16,,,99.99,Wunderground v.1.15,2013-03-08 00:29:00,
2013-03-07 19:34:00,43.9,26.0,30.20,NNE,23,0.0,1.0,49,15.16,,,99.99,Wunderground v.1.15,2013-03-08 00:34:00,
2013-03-07 19:39:00,43.6,25.7,30.20,North,0,0.0,1.0,49,14.40,,,99.99,Wunderground v.1.15,2013-03-08 00:39:00,
2013-03-07 19:44:00,43.3,24.4,30.20,ENE,69,0.0,1.0,47,14.40,,,99.99,Wunderground v.1.15,2013-03-08 00:44:00,
2013-03-07 19:49:00,43.2,25.3,30.21,SSW,196,0.0,3.0,49,14.40,,,99.99,Wunderground v.1.15,2013-03-08 00:49:00,
2013-03-07 19:56:00,42.8,25.4,30.21,WSW,248,0.0,1.0,50,15.16,,,99.99,Wunderground v.1.15,2013-03-08 00:56:00,
2013-03-07 20:01:00,42.5,25.6,30.21,South,186,0.0,1.0,51,15.16,,,99.99,Wunderground v.1.15,2013-03-08 01:01:00,
2013-03-07 20:06:00,42.1,25.7,30.22,South,185,0.0,0.0,52,15.16,,,99.99,Wunderground v.1.15,2013-03-08 01:06:00,
2013-03-07 20:12:00,41.8,25.4,30.22,SE,137,0.0,0.0,52,14.40,,,99.99,Wunderground v.1.15,2013-03-08 01:12:00,
2013-03-07 20:17:00,41.6,25.3,30.22,East,100,0.0,0.0,52,14.40,,,99.99,Wunderground v.1.15,2013-03-08 01:17:00,
2013-03-07 20:22:00,41.3,25.0,30.21,ESE,109,0.0,0.0,52,15.16,,,99.99,Wunderground v.1.15,2013-03-08 01:22:00,
2013-03-07 20:27:00,41.1,24.8,30.21,NE,45,2.0,2.0,52,15.16,,,99.99,Wunderground v.1.15,2013-03-08 01:27:00,
2013-03-07 20:32:00,40.9,25.1,30.23,NNE,16,0.0,2.0,53,14.40,,,99.99,Wunderground v.1.15,2013-03-08 01:32:00,
2013-03-07 20:38:00,40.6,24.8,30.23,NNW,336,0.0,0.0,53,15.16,,,99.99,Wunderground v.1.15,2013-03-08 01:38:00,
2013-03-07 20:43:00,40.5,24.2,30.23,WNW,289,0.0,2.0,52,15.16,,,99.99,Wunderground v.1.15,2013-03-08 01:43:00,
2013-03-07 20:48:00,40.5,24.7,30.23,WNW,294,0.0,0.0,53,15.16,,,99.99,Wunderground v.1.15,2013-03-08 01:48:00,
2013-03-07 20:53:00,40.3,24.5,30.23,WNW,295,0.0,0.0,53,15.16,,,99.99,Wunderground v.1.15,2013-03-08 01:53:00,
2013-03-07 20:58:00,40.1,24.3,30.23,East,79,0.0,0.0,53,15.16,,,99.99,Wunderground v.1.15,2013-03-08 01:58:00,
2013-03-07 21:03:00,39.6,24.7,30.23,East,79,0.0,0.0,55,15.16,,,99.99,Wunderground v.1.15,2013-03-08 02:03:00,
2013-03-07 21:08:00,39.3,25.3,30.23,East,79,0.0,0.0,57,15.16,,,99.99,Wunderground v.1.15,2013-03-08 02:08:00,
2013-03-07 21:13:00,38.8,25.3,30.23,ENE,73,0.0,1.0,58,15.16,,,99.99,Wunderground v.1.15,2013-03-08 02:13:00,
2013-03-07 21:18:00,38.2,24.7,30.22,ENE,64,0.0,2.0,58,15.16,,,99.99,Wunderground v.1.15,2013-03-08 02:18:00,
2013-03-07 21:24:00,38.0,24.1,30.22,NNE,30,0.0,6.0,57,15.16,,,99.99,Wunderground v.1.15,2013-03-08 02:24:00,
2013-03-07 21:28:00,37.9,24.0,30.22,NE,44,0.0,2.0,57,15.16,,,99.99,Wunderground v.1.15,2013-03-08 02:28:00,
2013-03-07 21:34:00,37.8,24.3,30.23,East,90,0.0,8.0,58,15.16,,,99.99,Wunderground v.1.15,2013-03-08 02:34:00,
2013-03-07 21:39:00,37.6,23.7,30.23,East,93,0.0,1.0,57,15.16,,,99.99,Wunderground v.1.15,2013-03-08 02:39:00,
2013-03-07 21:46:00,37.3,23.9,30.23,ENE,71,1.0,1.0,58,15.16,,,99.99,Wunderground v.1.15,2013-03-08 02:46:00,
2013-03-07 21:51:00,37.2,24.2,30.23,ENE,62,10.0,10.0,59,15.16,,,99.99,Wunderground v.1.15,2013-03-08 02:51:00,
2013-03-07 21:56:00,37.0,24.0,30.23,NE,56,0.0,2.0,59,15.16,,,99.99,Wunderground v.1.15,2013-03-08 02:56:00,
2013-03-07 22:02:00,37.0,24.0,30.23,North,7,0.0,6.0,59,15.16,,,99.99,Wunderground v.1.15,2013-03-08 03:02:00,
2013-03-07 22:07:00,37.0,24.4,30.23,NNE,32,0.0,1.0,60,15.16,,,99.99,Wunderground v.1.15,2013-03-08 03:07:00,
2013-03-07 22:12:00,36.8,24.2,30.23,NNE,30,0.0,2.0,60,14.40,,,99.99,Wunderground v.1.15,2013-03-08 03:12:00,
2013-03-07 22:17:00,36.3,24.1,30.22,NE,41,0.0,1.0,61,14.40,,,99.99,Wunderground v.1.15,2013-03-08 03:17:00,
2013-03-07 22:23:00,35.9,24.9,30.22,NE,51,0.0,1.0,64,15.16,,,99.99,Wunderground v.1.15,2013-03-08 03:23:00,
2013-03-07 22:28:00,35.5,24.5,30.22,NE,51,0.0,0.0,64,15.16,,,99.99,Wunderground v.1.15,2013-03-08 03:28:00,
2013-03-07 22:33:00,35.2,24.6,30.23,NE,51,0.0,0.0,65,15.16,,,99.99,Wunderground v.1.15,2013-03-08 03:33:00,
2013-03-07 22:38:00,34.9,24.7,30.23,North,354,0.0,0.0,66,15.16,,,99.99,Wunderground v.1.15,2013-03-08 03:38:00,
2013-03-07 22:43:00,34.6,24.4,30.23,North,354,0.0,0.0,66,15.16,,,99.99,Wunderground v.1.15,2013-03-08 03:43:00,
2013-03-07 22:48:00,34.4,24.2,30.23,North,354,0.0,0.0,66,15.16,,,99.99,Wunderground v.1.15,2013-03-08 03:48:00,
2013-03-07 22:53:00,34.4,24.2,30.23,NNE,18,0.0,2.0,66,14.40,,,99.99,Wunderground v.1.15,2013-03-08 03:53:00,
2013-03-07 22:58:00,34.4,24.2,30.23,NNE,18,0.0,0.0,66,14.40,,,99.99,Wunderground v.1.15,2013-03-08 03:58:00,
2013-03-07 23:03:00,34.3,24.1,30.23,NNE,18,0.0,0.0,66,14.40,,,99.99,Wunderground v.1.15,2013-03-08 04:03:00,
2013-03-07 23:08:00,34.1,23.9,30.23,NNE,18,0.0,0.0,66,14.40,,,99.99,Wunderground v.1.15,2013-03-08 04:08:00,
2013-03-07 23:13:00,34.0,24.2,30.23,NNE,18,0.0,0.0,67,15.16,,,99.99,Wunderground v.1.15,2013-03-08 04:13:00,
2013-03-07 23:19:00,33.7,24.3,30.21,ENE,68,0.0,0.0,68,15.16,,,99.99,Wunderground v.1.15,2013-03-08 04:19:00,
2013-03-07 23:24:00,33.5,24.1,30.21,ENE,68,0.0,0.0,68,14.40,,,99.99,Wunderground v.1.15,2013-03-08 04:24:00,
2013-03-07 23:30:00,33.2,24.1,30.21,ENE,68,0.0,0.0,69,15.16,,,99.99,Wunderground v.1.15,2013-03-08 04:30:00,
2013-03-07 23:36:00,32.9,23.8,30.22,ENE,68,0.0,0.0,69,15.16,,,99.99,Wunderground v.1.15,2013-03-08 04:36:00,
2013-03-07 23:41:00,32.7,24.0,30.22,ENE,68,0.0,0.0,70,14.40,,,99.99,Wunderground v.1.15,2013-03-08 04:41:00,
2013-03-07 23:47:00,32.5,23.8,30.22,ENE,68,0.0,0.0,70,14.40,,,99.99,Wunderground v.1.15,2013-03-08 04:47:00,
2013-03-07 23:52:00,32.4,23.7,30.22,ENE,68,0.0,0.0,70,14.40,,,99.99,Wunderground v.1.15,2013-03-08 04:52:00,
2013-03-07 23:57:00,32.2,23.5,30.22,ENE,68,0.0,0.0,70,15.16,,,99.99,Wunderground v.1.15,2013-03-08 04:57:00,